UAE385A VHHH-VTBS
Flight info
| Callsign | UAE385A |
|---|---|
| Flight time | 2h 14m |
| Altitude | 38000 |
| Route | PECAN V10 SIKOU/K0882S1160 A202 ASSAD/K0874F380 A202 VILAO/N0471F380 A202 RAMEI W42 PAKRI Y13 RUKSA DCT EASTE EASTE1C |
| Aircraft | A388/J-SADE2E3FGHIJ3J4J5M1RWXY/LB1D1 |
Departure
| Time | 2026-05-06 09:05 |
|---|---|
| Airport | Hong Kong International Airport (VHHH) |
Arrival
| Time | 2026-05-06 11:19 |
|---|---|
| Airport | Suvarnabhumi Airport (VTBS) |
| Time | Latitude | Longitude | Altitude | Speed | Heading |
|---|---|---|---|---|---|
| 2026-05-06 07:58 | 22.31448 | 113.92649 | 37 ft | 0 kts | 206° |
| 2026-05-06 08:47 | 22.31459 | 113.92655 | 37 ft | 3 kts | 206° |
| 2026-05-06 08:47 | 22.31477 | 113.92664 | 36 ft | 3 kts | 206° |
| 2026-05-06 08:47 | 22.31493 | 113.92672 | 35 ft | 3 kts | 210° |
| 2026-05-06 08:47 | 22.31506 | 113.92683 | 35 ft | 3 kts | 232° |
| 2026-05-06 08:48 | 22.31512 | 113.92696 | 33 ft | 3 kts | 263° |
| 2026-05-06 08:48 | 22.31511 | 113.92712 | 32 ft | 3 kts | 289° |
| 2026-05-06 08:48 | 22.31504 | 113.92729 | 33 ft | 3 kts | 296° |
| 2026-05-06 08:48 | 22.31495 | 113.92748 | 33 ft | 3 kts | 298° |
| 2026-05-06 08:49 | 22.31486 | 113.92767 | 35 ft | 3 kts | 289° |
| 2026-05-06 08:49 | 22.31483 | 113.92781 | 35 ft | 3 kts | 260° |
| 2026-05-06 08:49 | 22.31488 | 113.92797 | 33 ft | 3 kts | 251° |
| 2026-05-06 08:49 | 22.31495 | 113.92818 | 33 ft | 3 kts | 251° |
| 2026-05-06 08:50 | 22.31498 | 113.92829 | 35 ft | 0 kts | 251° |
| 2026-05-06 08:52 | 22.31496 | 113.92823 | 33 ft | 3 kts | 251° |
| 2026-05-06 08:52 | 22.31490 | 113.92786 | 34 ft | 7 kts | 273° |
| 2026-05-06 08:52 | 22.31510 | 113.92716 | 33 ft | 12 kts | 295° |
| 2026-05-06 08:53 | 22.31555 | 113.92614 | 37 ft | 17 kts | 296° |
| 2026-05-06 08:53 | 22.31609 | 113.92493 | 37 ft | 6 kts | 296° |
| 2026-05-06 08:53 | 22.31635 | 113.92436 | 37 ft | 11 kts | 295° |
| 2026-05-06 08:53 | 22.31632 | 113.92340 | 37 ft | 16 kts | 253° |
| 2026-05-06 08:54 | 22.31591 | 113.92211 | 37 ft | 20 kts | 250° |
| 2026-05-06 08:54 | 22.31555 | 113.92100 | 37 ft | 9 kts | 250° |
| 2026-05-06 08:54 | 22.31507 | 113.92067 | 37 ft | 9 kts | 173° |
| 2026-05-06 08:54 | 22.31433 | 113.92092 | 37 ft | 13 kts | 160° |
| 2026-05-06 08:55 | 22.31336 | 113.92130 | 37 ft | 16 kts | 161° |
| 2026-05-06 08:55 | 22.31220 | 113.92173 | 37 ft | 19 kts | 160° |
| 2026-05-06 08:55 | 22.31090 | 113.92221 | 37 ft | 21 kts | 160° |
| 2026-05-06 08:55 | 22.30955 | 113.92271 | 37 ft | 20 kts | 161° |
| 2026-05-06 08:56 | 22.30862 | 113.92305 | 37 ft | 13 kts | 162° |
| 2026-05-06 08:56 | 22.30781 | 113.92336 | 37 ft | 0 kts | 160° |
| 2026-05-06 08:56 | 22.30780 | 113.92336 | 37 ft | 1 kts | 160° |
| 2026-05-06 08:57 | 22.30753 | 113.92344 | 37 ft | 7 kts | 174° |
| 2026-05-06 08:57 | 22.30713 | 113.92323 | 37 ft | 9 kts | 237° |
| 2026-05-06 08:57 | 22.30684 | 113.92240 | 37 ft | 14 kts | 251° |
| 2026-05-06 08:57 | 22.30652 | 113.92140 | 37 ft | 14 kts | 251° |
| 2026-05-06 08:58 | 22.30620 | 113.92040 | 37 ft | 11 kts | 251° |
| 2026-05-06 08:58 | 22.30590 | 113.91945 | 37 ft | 13 kts | 250° |
| 2026-05-06 08:58 | 22.30564 | 113.91865 | 37 ft | 12 kts | 250° |
| 2026-05-06 08:58 | 22.30532 | 113.91768 | 37 ft | 13 kts | 250° |
| 2026-05-06 08:59 | 22.30510 | 113.91700 | 37 ft | 10 kts | 251° |
| 2026-05-06 08:59 | 22.30481 | 113.91610 | 37 ft | 15 kts | 250° |
| 2026-05-06 08:59 | 22.30444 | 113.91497 | 37 ft | 14 kts | 251° |
| 2026-05-06 08:59 | 22.30422 | 113.91427 | 37 ft | 6 kts | 251° |
| 2026-05-06 09:00 | 22.30403 | 113.91368 | 37 ft | 11 kts | 251° |
| 2026-05-06 09:00 | 22.30372 | 113.91271 | 37 ft | 16 kts | 251° |
| 2026-05-06 09:00 | 22.30330 | 113.91142 | 37 ft | 15 kts | 251° |
| 2026-05-06 09:00 | 22.30307 | 113.91069 | 37 ft | 12 kts | 251° |
| 2026-05-06 09:01 | 22.30276 | 113.90970 | 37 ft | 15 kts | 251° |
| 2026-05-06 09:01 | 22.30253 | 113.90898 | 37 ft | 9 kts | 251° |
| 2026-05-06 09:01 | 22.30226 | 113.90815 | 37 ft | 14 kts | 250° |
| 2026-05-06 09:01 | 22.30153 | 113.90732 | 37 ft | 17 kts | 204° |
| 2026-05-06 09:02 | 22.30073 | 113.90636 | 37 ft | 19 kts | 249° |
| 2026-05-06 09:02 | 22.30022 | 113.90481 | 37 ft | 26 kts | 251° |
| 2026-05-06 09:02 | 22.29960 | 113.90289 | 37 ft | 26 kts | 251° |
| 2026-05-06 09:02 | 22.29901 | 113.90102 | 37 ft | 28 kts | 251° |
| 2026-05-06 09:03 | 22.29844 | 113.89925 | 37 ft | 25 kts | 250° |
| 2026-05-06 09:03 | 22.29803 | 113.89802 | 37 ft | 14 kts | 247° |
| 2026-05-06 09:03 | 22.29738 | 113.89768 | 37 ft | 11 kts | 164° |
| 2026-05-06 09:03 | 22.29655 | 113.89799 | 35 ft | 11 kts | 160° |
| 2026-05-06 09:04 | 22.29633 | 113.89829 | 35 ft | 4 kts | 85° |
| 2026-05-06 09:04 | 22.29657 | 113.89916 | 35 ft | 35 kts | 71° |
| 2026-05-06 09:04 | 22.29829 | 113.90452 | 36 ft | 112 kts | 71° |
| 2026-05-06 09:04 | 22.30144 | 113.91426 | 38 ft | 158 kts | 70° |
| 2026-05-06 09:05 | 22.30525 | 113.92569 | 478 ft | 161 kts | 71° |
| 2026-05-06 09:05 | 22.30910 | 113.93692 | 1068 ft | 163 kts | 71° |
| 2026-05-06 09:05 | 22.31315 | 113.94864 | 1538 ft | 166 kts | 72° |
| 2026-05-06 09:05 | 22.31700 | 113.96033 | 2015 ft | 168 kts | 74° |
| 2026-05-06 09:06 | 22.32076 | 113.97234 | 2598 ft | 168 kts | 75° |
| 2026-05-06 09:06 | 22.32442 | 113.98454 | 3144 ft | 176 kts | 74° |
| 2026-05-06 09:06 | 22.32841 | 113.99778 | 3485 ft | 194 kts | 73° |
| 2026-05-06 09:06 | 22.33294 | 114.01227 | 3702 ft | 213 kts | 72° |
| 2026-05-06 09:07 | 22.33791 | 114.02798 | 3871 ft | 227 kts | 76° |
| 2026-05-06 09:07 | 22.33812 | 114.04553 | 4072 ft | 245 kts | 110° |
| 2026-05-06 09:07 | 22.32966 | 114.06130 | 4825 ft | 245 kts | 132° |
| 2026-05-06 09:07 | 22.31744 | 114.07365 | 5683 ft | 244 kts | 149° |
| 2026-05-06 09:08 | 22.30207 | 114.08179 | 6526 ft | 244 kts | 165° |
| 2026-05-06 09:08 | 22.28550 | 114.08568 | 7342 ft | 244 kts | 176° |
| 2026-05-06 09:08 | 22.26849 | 114.08708 | 8126 ft | 247 kts | 181° |
| 2026-05-06 09:08 | 22.25066 | 114.08737 | 8552 ft | 267 kts | 183° |
| 2026-05-06 09:09 | 22.23139 | 114.08727 | 8966 ft | 284 kts | 183° |
| 2026-05-06 09:09 | 22.21146 | 114.08716 | 9718 ft | 288 kts | 183° |
| 2026-05-06 09:09 | 22.19122 | 114.08712 | 10270 ft | 298 kts | 183° |
| 2026-05-06 09:09 | 22.16968 | 114.08709 | 10436 ft | 320 kts | 182° |
| 2026-05-06 09:10 | 22.14670 | 114.08712 | 10616 ft | 339 kts | 182° |
| 2026-05-06 09:10 | 22.12281 | 114.08719 | 11108 ft | 347 kts | 182° |
| 2026-05-06 09:10 | 22.09852 | 114.08728 | 11712 ft | 351 kts | 182° |
| 2026-05-06 09:10 | 22.07390 | 114.08736 | 12308 ft | 355 kts | 182° |
| 2026-05-06 09:11 | 22.04900 | 114.08744 | 12921 ft | 360 kts | 182° |
| 2026-05-06 09:11 | 22.02381 | 114.08750 | 13525 ft | 364 kts | 182° |
| 2026-05-06 09:11 | 21.99859 | 114.08756 | 14080 ft | 369 kts | 182° |
| 2026-05-06 09:11 | 21.97287 | 114.08763 | 14687 ft | 370 kts | 182° |
| 2026-05-06 09:12 | 21.94713 | 114.08770 | 15282 ft | 372 kts | 182° |
| 2026-05-06 09:12 | 21.92114 | 114.08777 | 15878 ft | 375 kts | 182° |
| 2026-05-06 09:12 | 21.89500 | 114.08783 | 16462 ft | 377 kts | 182° |
| 2026-05-06 09:12 | 21.87757 | 114.08788 | 16844 ft | 379 kts | 182° |
| 2026-05-06 09:13 | 21.84475 | 114.08796 | 17534 ft | 382 kts | 182° |
| 2026-05-06 09:13 | 21.81809 | 114.08802 | 18098 ft | 385 kts | 182° |
| 2026-05-06 09:13 | 21.79158 | 114.08809 | 18564 ft | 388 kts | 182° |
| 2026-05-06 09:13 | 21.76409 | 114.08816 | 19014 ft | 391 kts | 182° |
| 2026-05-06 09:14 | 21.73681 | 114.08822 | 19466 ft | 394 kts | 182° |
| 2026-05-06 09:14 | 21.70929 | 114.08829 | 19906 ft | 396 kts | 182° |
| 2026-05-06 09:14 | 21.68165 | 114.08836 | 20337 ft | 400 kts | 182° |
| 2026-05-06 09:14 | 21.65446 | 114.08783 | 20747 ft | 401 kts | 187° |
| 2026-05-06 09:15 | 21.62617 | 114.08362 | 21196 ft | 401 kts | 194° |
| 2026-05-06 09:15 | 21.59901 | 114.07647 | 21624 ft | 403 kts | 197° |
| 2026-05-06 09:15 | 21.57227 | 114.06939 | 22050 ft | 406 kts | 197° |
| 2026-05-06 09:15 | 21.54446 | 114.06217 | 22488 ft | 409 kts | 196° |
| 2026-05-06 09:16 | 21.51675 | 114.05502 | 22894 ft | 412 kts | 197° |
| 2026-05-06 09:16 | 21.48879 | 114.04781 | 23310 ft | 414 kts | 197° |
| 2026-05-06 09:16 | 21.46091 | 114.03984 | 23686 ft | 415 kts | 201° |
| 2026-05-06 09:16 | 21.43406 | 114.02846 | 24051 ft | 415 kts | 208° |
| 2026-05-06 09:17 | 21.40868 | 114.01373 | 24414 ft | 414 kts | 214° |
| 2026-05-06 09:17 | 21.38466 | 113.99659 | 24753 ft | 416 kts | 216° |
| 2026-05-06 09:17 | 21.36054 | 113.97938 | 25114 ft | 418 kts | 216° |
| 2026-05-06 09:17 | 21.33614 | 113.96212 | 25457 ft | 421 kts | 216° |
| 2026-05-06 09:18 | 21.31161 | 113.94483 | 25826 ft | 423 kts | 216° |
| 2026-05-06 09:18 | 21.28696 | 113.92744 | 26168 ft | 425 kts | 216° |
| 2026-05-06 09:18 | 21.26220 | 113.90997 | 26541 ft | 428 kts | 216° |
| 2026-05-06 09:18 | 21.23729 | 113.89240 | 26923 ft | 430 kts | 216° |
| 2026-05-06 09:19 | 21.21220 | 113.87469 | 27323 ft | 433 kts | 216° |
| 2026-05-06 09:19 | 21.18696 | 113.85689 | 27706 ft | 436 kts | 216° |
| 2026-05-06 09:19 | 21.16157 | 113.83899 | 28126 ft | 439 kts | 216° |
| 2026-05-06 09:19 | 21.13597 | 113.82094 | 28557 ft | 442 kts | 216° |
| 2026-05-06 09:20 | 21.11115 | 113.80152 | 28977 ft | 442 kts | 224° |
| 2026-05-06 09:20 | 21.09049 | 113.77722 | 29433 ft | 442 kts | 236° |
| 2026-05-06 09:20 | 21.07487 | 113.74882 | 29878 ft | 444 kts | 247° |
| 2026-05-06 09:20 | 21.06427 | 113.71779 | 30299 ft | 445 kts | 252° |
| 2026-05-06 09:21 | 21.05427 | 113.68631 | 30694 ft | 448 kts | 252° |
| 2026-05-06 09:21 | 21.04402 | 113.65466 | 31101 ft | 451 kts | 252° |
| 2026-05-06 09:21 | 21.03365 | 113.62275 | 31478 ft | 455 kts | 252° |
| 2026-05-06 09:21 | 21.02322 | 113.59069 | 31890 ft | 458 kts | 252° |
| 2026-05-06 09:22 | 21.01272 | 113.55839 | 32292 ft | 461 kts | 252° |
| 2026-05-06 09:22 | 21.00216 | 113.52590 | 32698 ft | 464 kts | 252° |
| 2026-05-06 09:22 | 20.99154 | 113.49321 | 33087 ft | 467 kts | 252° |
| 2026-05-06 09:22 | 20.98086 | 113.46037 | 33488 ft | 470 kts | 252° |
| 2026-05-06 09:23 | 20.97007 | 113.42721 | 33891 ft | 472 kts | 252° |
| 2026-05-06 09:23 | 20.95921 | 113.39383 | 34153 ft | 477 kts | 253° |
| 2026-05-06 09:23 | 20.94828 | 113.36028 | 34520 ft | 479 kts | 252° |
| 2026-05-06 09:23 | 20.94097 | 113.33788 | 34769 ft | 481 kts | 252° |
| 2026-05-06 09:24 | 20.92996 | 113.30415 | 35228 ft | 481 kts | 252° |
| 2026-05-06 09:24 | 20.91893 | 113.27039 | 35714 ft | 480 kts | 252° |
| 2026-05-06 09:24 | 20.90793 | 113.23672 | 36209 ft | 479 kts | 252° |
| 2026-05-06 09:24 | 20.89694 | 113.20312 | 36688 ft | 478 kts | 252° |
| 2026-05-06 09:25 | 20.88597 | 113.16960 | 37182 ft | 477 kts | 252° |
| 2026-05-06 09:25 | 20.87501 | 113.13613 | 37641 ft | 476 kts | 252° |
| 2026-05-06 09:25 | 20.86404 | 113.10264 | 37896 ft | 481 kts | 252° |
| 2026-05-06 09:26 | 20.84203 | 113.03555 | 37905 ft | 476 kts | 252° |
| 2026-05-06 09:26 | 20.82001 | 112.96854 | 37901 ft | 478 kts | 252° |
| 2026-05-06 09:27 | 20.79797 | 112.90157 | 37902 ft | 478 kts | 252° |
| 2026-05-06 09:27 | 20.77589 | 112.83456 | 37901 ft | 478 kts | 252° |
| 2026-05-06 09:28 | 20.75378 | 112.76757 | 37900 ft | 478 kts | 252° |
| 2026-05-06 09:28 | 20.73167 | 112.70065 | 37899 ft | 477 kts | 252° |
| 2026-05-06 09:29 | 20.70969 | 112.63424 | 37895 ft | 477 kts | 252° |
| 2026-05-06 09:29 | 20.68761 | 112.56764 | 37896 ft | 476 kts | 252° |
| 2026-05-06 09:30 | 20.66549 | 112.50099 | 37897 ft | 477 kts | 252° |
| 2026-05-06 09:30 | 20.64333 | 112.43433 | 37896 ft | 476 kts | 252° |
| 2026-05-06 09:31 | 20.62116 | 112.36772 | 37899 ft | 476 kts | 252° |
| 2026-05-06 09:31 | 20.59898 | 112.30115 | 37894 ft | 476 kts | 252° |
| 2026-05-06 09:32 | 20.57688 | 112.23460 | 37893 ft | 475 kts | 255° |
| 2026-05-06 09:32 | 20.56687 | 112.16554 | 37886 ft | 471 kts | 272° |
| 2026-05-06 09:33 | 20.57703 | 112.09696 | 37887 ft | 469 kts | 288° |
| 2026-05-06 09:33 | 20.58934 | 112.06458 | 38094 ft | 472 kts | 296° |
| 2026-05-06 09:33 | 20.60385 | 112.03321 | 38608 ft | 470 kts | 295° |
| 2026-05-06 09:33 | 20.61799 | 112.00189 | 39040 ft | 468 kts | 295° |
| 2026-05-06 09:34 | 20.63202 | 111.97062 | 39429 ft | 467 kts | 295° |
| 2026-05-06 09:34 | 20.64604 | 111.93937 | 39772 ft | 467 kts | 295° |
| 2026-05-06 09:34 | 20.66019 | 111.90791 | 39893 ft | 469 kts | 295° |
| 2026-05-06 09:35 | 20.68791 | 111.84634 | 39890 ft | 462 kts | 295° |
| 2026-05-06 09:35 | 20.71604 | 111.78386 | 39887 ft | 464 kts | 295° |
| 2026-05-06 09:36 | 20.74395 | 111.72178 | 39878 ft | 464 kts | 295° |
| 2026-05-06 09:36 | 20.77185 | 111.65966 | 39889 ft | 464 kts | 295° |
| 2026-05-06 09:37 | 20.79955 | 111.59789 | 39892 ft | 464 kts | 295° |
| 2026-05-06 09:37 | 20.82034 | 111.53245 | 39882 ft | 464 kts | 280° |
| 2026-05-06 09:37 | 20.82398 | 111.49844 | 39989 ft | 469 kts | 273° |
| 2026-05-06 09:38 | 20.82329 | 111.46317 | 39989 ft | 468 kts | 265° |
| 2026-05-06 09:38 | 20.80839 | 111.39585 | 39981 ft | 469 kts | 251° |
| 2026-05-06 09:39 | 20.78623 | 111.33026 | 39982 ft | 470 kts | 252° |
| 2026-05-06 09:39 | 20.76429 | 111.26451 | 39980 ft | 470 kts | 252° |
| 2026-05-06 09:40 | 20.74223 | 111.19878 | 39979 ft | 470 kts | 252° |
| 2026-05-06 09:40 | 20.70919 | 111.10076 | 39981 ft | 469 kts | 252° |
| 2026-05-06 09:41 | 20.68699 | 111.03497 | 39978 ft | 477 kts | 252° |
| 2026-05-06 09:41 | 20.66428 | 110.96777 | 39974 ft | 484 kts | 252° |
| 2026-05-06 09:42 | 20.64150 | 110.90054 | 39974 ft | 480 kts | 252° |
| 2026-05-06 09:42 | 20.61887 | 110.83317 | 39975 ft | 480 kts | 252° |
| 2026-05-06 09:43 | 20.59643 | 110.76627 | 39972 ft | 480 kts | 252° |
| 2026-05-06 09:43 | 20.57380 | 110.69898 | 39973 ft | 480 kts | 252° |
| 2026-05-06 09:44 | 20.55132 | 110.63225 | 39974 ft | 480 kts | 252° |
| 2026-05-06 09:44 | 20.52868 | 110.56524 | 39959 ft | 480 kts | 251° |
| 2026-05-06 09:45 | 20.50055 | 110.50052 | 39965 ft | 483 kts | 243° |
| 2026-05-06 09:45 | 20.46334 | 110.44054 | 39974 ft | 486 kts | 234° |
| 2026-05-06 09:46 | 20.42050 | 110.38455 | 39970 ft | 487 kts | 233° |
| 2026-05-06 09:46 | 20.37777 | 110.32852 | 39970 ft | 487 kts | 233° |
| 2026-05-06 09:47 | 20.33494 | 110.27247 | 39971 ft | 487 kts | 233° |
| 2026-05-06 09:47 | 20.29213 | 110.21650 | 39968 ft | 487 kts | 233° |
| 2026-05-06 09:48 | 20.24984 | 110.16004 | 39959 ft | 487 kts | 234° |
| 2026-05-06 09:48 | 20.20764 | 110.10354 | 39961 ft | 487 kts | 233° |
| 2026-05-06 09:49 | 20.16539 | 110.04717 | 39955 ft | 487 kts | 233° |
| 2026-05-06 09:49 | 20.12303 | 109.99079 | 39956 ft | 488 kts | 233° |
| 2026-05-06 09:50 | 20.08082 | 109.93465 | 39956 ft | 488 kts | 233° |
| 2026-05-06 09:50 | 20.03826 | 109.87809 | 39955 ft | 488 kts | 233° |
| 2026-05-06 09:51 | 19.99584 | 109.82179 | 39955 ft | 488 kts | 233° |
| 2026-05-06 09:51 | 19.95339 | 109.76550 | 39955 ft | 488 kts | 233° |
| 2026-05-06 09:52 | 19.91092 | 109.70922 | 39957 ft | 488 kts | 233° |
| 2026-05-06 09:52 | 19.86878 | 109.65345 | 39958 ft | 488 kts | 233° |
| 2026-05-06 09:53 | 19.82589 | 109.59673 | 39959 ft | 488 kts | 233° |
| 2026-05-06 09:53 | 19.78359 | 109.54084 | 39958 ft | 489 kts | 233° |
| 2026-05-06 09:54 | 19.74099 | 109.48461 | 39957 ft | 489 kts | 233° |
| 2026-05-06 09:54 | 19.69836 | 109.42840 | 39947 ft | 489 kts | 233° |
| 2026-05-06 09:55 | 19.65565 | 109.37215 | 39950 ft | 489 kts | 233° |
| 2026-05-06 09:55 | 19.61291 | 109.31588 | 39952 ft | 490 kts | 233° |
| 2026-05-06 09:56 | 19.57008 | 109.25957 | 39954 ft | 490 kts | 233° |
| 2026-05-06 09:56 | 19.52725 | 109.20330 | 39957 ft | 490 kts | 233° |
| 2026-05-06 09:57 | 19.48421 | 109.14714 | 39959 ft | 491 kts | 233° |
| 2026-05-06 09:57 | 19.44101 | 109.09122 | 39949 ft | 491 kts | 233° |
| 2026-05-06 09:58 | 19.39772 | 109.03516 | 39952 ft | 491 kts | 233° |
| 2026-05-06 09:58 | 19.35443 | 108.97912 | 39951 ft | 492 kts | 233° |
| 2026-05-06 09:59 | 19.31112 | 108.92309 | 39954 ft | 492 kts | 233° |
| 2026-05-06 09:59 | 19.26770 | 108.86697 | 39954 ft | 492 kts | 233° |
| 2026-05-06 10:00 | 19.22428 | 108.81090 | 39955 ft | 492 kts | 233° |
| 2026-05-06 10:00 | 19.18088 | 108.75488 | 39949 ft | 492 kts | 233° |
| 2026-05-06 10:01 | 19.13746 | 108.69889 | 39942 ft | 493 kts | 232° |
| 2026-05-06 10:01 | 19.09395 | 108.64285 | 39945 ft | 493 kts | 232° |
| 2026-05-06 10:02 | 19.05045 | 108.58687 | 39945 ft | 493 kts | 232° |
| 2026-05-06 10:02 | 19.00695 | 108.53093 | 39943 ft | 493 kts | 232° |
| 2026-05-06 10:03 | 18.96337 | 108.47495 | 39941 ft | 493 kts | 232° |
| 2026-05-06 10:03 | 18.91981 | 108.41904 | 39938 ft | 493 kts | 232° |
| 2026-05-06 10:04 | 18.87623 | 108.36317 | 39943 ft | 493 kts | 232° |
| 2026-05-06 10:04 | 18.83267 | 108.30736 | 39941 ft | 492 kts | 232° |
| 2026-05-06 10:05 | 18.78940 | 108.25197 | 39941 ft | 493 kts | 232° |
| 2026-05-06 10:05 | 18.74579 | 108.19621 | 39941 ft | 493 kts | 232° |
| 2026-05-06 10:06 | 18.70248 | 108.14087 | 39944 ft | 493 kts | 232° |
| 2026-05-06 10:06 | 18.65849 | 108.08471 | 39945 ft | 493 kts | 232° |
| 2026-05-06 10:07 | 18.62216 | 108.03837 | 39945 ft | 493 kts | 232° |
| 2026-05-06 10:07 | 18.57850 | 107.98273 | 39943 ft | 493 kts | 232° |
| 2026-05-06 10:08 | 18.53476 | 107.92704 | 39941 ft | 493 kts | 232° |
| 2026-05-06 10:08 | 18.49098 | 107.87134 | 39937 ft | 493 kts | 232° |
| 2026-05-06 10:09 | 18.44719 | 107.81568 | 39937 ft | 493 kts | 232° |
| 2026-05-06 10:09 | 18.40335 | 107.76001 | 39939 ft | 493 kts | 232° |
| 2026-05-06 10:10 | 18.35953 | 107.70440 | 39940 ft | 493 kts | 232° |
| 2026-05-06 10:10 | 18.31995 | 107.64616 | 39844 ft | 489 kts | 239° |
| 2026-05-06 10:11 | 18.28354 | 107.58546 | 39827 ft | 492 kts | 239° |
| 2026-05-06 10:11 | 18.24680 | 107.52472 | 39834 ft | 492 kts | 239° |
| 2026-05-06 10:12 | 18.21005 | 107.46403 | 39831 ft | 492 kts | 239° |
| 2026-05-06 10:12 | 18.17329 | 107.40335 | 39835 ft | 492 kts | 239° |
| 2026-05-06 10:13 | 18.13676 | 107.34311 | 39832 ft | 491 kts | 239° |
| 2026-05-06 10:13 | 18.10000 | 107.28253 | 39831 ft | 491 kts | 239° |
| 2026-05-06 10:14 | 18.06324 | 107.22204 | 39832 ft | 491 kts | 239° |
| 2026-05-06 10:14 | 18.02644 | 107.16160 | 39828 ft | 491 kts | 239° |
| 2026-05-06 10:15 | 17.98966 | 107.10127 | 39827 ft | 491 kts | 239° |
| 2026-05-06 10:15 | 17.95280 | 107.04086 | 39828 ft | 491 kts | 238° |
| 2026-05-06 10:16 | 17.91598 | 106.98057 | 39836 ft | 490 kts | 238° |
| 2026-05-06 10:16 | 17.87916 | 106.92034 | 39831 ft | 490 kts | 238° |
| 2026-05-06 10:17 | 17.84249 | 106.86002 | 39837 ft | 490 kts | 239° |
| 2026-05-06 10:17 | 17.80583 | 106.79964 | 39836 ft | 490 kts | 239° |
| 2026-05-06 10:18 | 17.76940 | 106.73977 | 39836 ft | 490 kts | 239° |
| 2026-05-06 10:18 | 17.73250 | 106.67918 | 39834 ft | 490 kts | 238° |
| 2026-05-06 10:19 | 17.69575 | 106.61892 | 39844 ft | 490 kts | 238° |
| 2026-05-06 10:19 | 17.65897 | 106.55871 | 39847 ft | 490 kts | 238° |
| 2026-05-06 10:20 | 17.62203 | 106.49848 | 39847 ft | 491 kts | 238° |
| 2026-05-06 10:20 | 17.58513 | 106.43838 | 39862 ft | 491 kts | 238° |
| 2026-05-06 10:21 | 17.54813 | 106.37813 | 39865 ft | 491 kts | 238° |
| 2026-05-06 10:21 | 17.51142 | 106.31840 | 39878 ft | 492 kts | 238° |
| 2026-05-06 10:22 | 17.47406 | 106.25769 | 39897 ft | 491 kts | 238° |
| 2026-05-06 10:22 | 17.43702 | 106.19753 | 39895 ft | 491 kts | 238° |
| 2026-05-06 10:23 | 17.39995 | 106.13740 | 39878 ft | 491 kts | 238° |
| 2026-05-06 10:23 | 17.36287 | 106.07728 | 39873 ft | 491 kts | 238° |
| 2026-05-06 10:24 | 17.32634 | 106.01707 | 39876 ft | 491 kts | 238° |
| 2026-05-06 10:24 | 17.28983 | 105.95657 | 39879 ft | 491 kts | 238° |
| 2026-05-06 10:25 | 17.25326 | 105.89618 | 39866 ft | 491 kts | 238° |
| 2026-05-06 10:25 | 17.21689 | 105.83624 | 39868 ft | 491 kts | 238° |
| 2026-05-06 10:26 | 17.18032 | 105.77601 | 39854 ft | 491 kts | 238° |
| 2026-05-06 10:26 | 17.14367 | 105.71572 | 39855 ft | 491 kts | 238° |
| 2026-05-06 10:27 | 17.10701 | 105.65545 | 39861 ft | 491 kts | 238° |
| 2026-05-06 10:27 | 17.07032 | 105.59519 | 39850 ft | 492 kts | 238° |
| 2026-05-06 10:28 | 17.03356 | 105.53488 | 39871 ft | 492 kts | 238° |
| 2026-05-06 10:28 | 16.99676 | 105.47455 | 39880 ft | 492 kts | 238° |
| 2026-05-06 10:29 | 16.95992 | 105.41420 | 39879 ft | 492 kts | 238° |
| 2026-05-06 10:29 | 16.92311 | 105.35396 | 39866 ft | 492 kts | 238° |
| 2026-05-06 10:30 | 16.88626 | 105.29370 | 39856 ft | 492 kts | 238° |
| 2026-05-06 10:30 | 16.84939 | 105.23346 | 39859 ft | 492 kts | 238° |
| 2026-05-06 10:31 | 16.81247 | 105.17329 | 39848 ft | 492 kts | 238° |
| 2026-05-06 10:31 | 16.77544 | 105.11302 | 39872 ft | 493 kts | 238° |
| 2026-05-06 10:32 | 16.73839 | 105.05276 | 39867 ft | 494 kts | 238° |
| 2026-05-06 10:32 | 16.70128 | 104.99244 | 39867 ft | 494 kts | 238° |
| 2026-05-06 10:33 | 16.66409 | 104.93206 | 39873 ft | 495 kts | 238° |
| 2026-05-06 10:33 | 16.62691 | 104.87174 | 39886 ft | 494 kts | 238° |
| 2026-05-06 10:34 | 16.59005 | 104.81198 | 39887 ft | 494 kts | 238° |
| 2026-05-06 10:34 | 16.55014 | 104.75299 | 39886 ft | 494 kts | 231° |
| 2026-05-06 10:35 | 16.50438 | 104.69954 | 39875 ft | 494 kts | 229° |
| 2026-05-06 10:35 | 16.45884 | 104.64652 | 39879 ft | 494 kts | 229° |
| 2026-05-06 10:36 | 16.41298 | 104.59313 | 39879 ft | 495 kts | 229° |
| 2026-05-06 10:36 | 16.36705 | 104.53973 | 39876 ft | 495 kts | 229° |
| 2026-05-06 10:37 | 16.32110 | 104.48638 | 39872 ft | 495 kts | 229° |
| 2026-05-06 10:37 | 16.27510 | 104.43299 | 39875 ft | 495 kts | 229° |
| 2026-05-06 10:38 | 16.22888 | 104.37981 | 39862 ft | 495 kts | 228° |
| 2026-05-06 10:38 | 16.18239 | 104.32680 | 39855 ft | 496 kts | 228° |
| 2026-05-06 10:39 | 16.13588 | 104.27372 | 39846 ft | 496 kts | 228° |
| 2026-05-06 10:39 | 16.08968 | 104.22099 | 39847 ft | 497 kts | 228° |
| 2026-05-06 10:40 | 16.04283 | 104.16745 | 39855 ft | 497 kts | 228° |
| 2026-05-06 10:40 | 15.99692 | 104.11381 | 39841 ft | 496 kts | 229° |
| 2026-05-06 10:41 | 15.95105 | 104.06013 | 39835 ft | 496 kts | 229° |
| 2026-05-06 10:41 | 15.90515 | 104.00663 | 39829 ft | 496 kts | 229° |
| 2026-05-06 10:42 | 15.85985 | 103.95389 | 39821 ft | 496 kts | 228° |
| 2026-05-06 10:42 | 15.81389 | 103.90043 | 39827 ft | 496 kts | 228° |
| 2026-05-06 10:43 | 15.76790 | 103.84698 | 39833 ft | 496 kts | 228° |
| 2026-05-06 10:44 | 15.69890 | 103.76685 | 39836 ft | 496 kts | 228° |
| 2026-05-06 10:44 | 15.65307 | 103.71368 | 39837 ft | 496 kts | 228° |
| 2026-05-06 10:45 | 15.60704 | 103.66030 | 39835 ft | 496 kts | 228° |
| 2026-05-06 10:45 | 15.56105 | 103.60703 | 39833 ft | 496 kts | 228° |
| 2026-05-06 10:46 | 15.51498 | 103.55370 | 39834 ft | 496 kts | 228° |
| 2026-05-06 10:46 | 15.46895 | 103.50044 | 39833 ft | 496 kts | 228° |
| 2026-05-06 10:47 | 15.42292 | 103.44724 | 39823 ft | 496 kts | 228° |
| 2026-05-06 10:47 | 15.37683 | 103.39399 | 39817 ft | 496 kts | 228° |
| 2026-05-06 10:48 | 15.33077 | 103.34082 | 39809 ft | 496 kts | 228° |
| 2026-05-06 10:48 | 15.28466 | 103.28763 | 39803 ft | 496 kts | 228° |
| 2026-05-06 10:49 | 15.23863 | 103.23457 | 39799 ft | 496 kts | 228° |
| 2026-05-06 10:49 | 15.19242 | 103.18134 | 39799 ft | 496 kts | 228° |
| 2026-05-06 10:50 | 15.14623 | 103.12818 | 39808 ft | 496 kts | 228° |
| 2026-05-06 10:50 | 15.10009 | 103.07510 | 39844 ft | 496 kts | 228° |
| 2026-05-06 10:51 | 15.06033 | 103.03238 | 39844 ft | 496 kts | 223° |
| 2026-05-06 10:51 | 15.00612 | 102.98827 | 39843 ft | 496 kts | 214° |
| 2026-05-06 10:52 | 14.94696 | 102.95141 | 39842 ft | 496 kts | 211° |
| 2026-05-06 10:52 | 14.89273 | 102.90775 | 39839 ft | 495 kts | 228° |
| 2026-05-06 10:53 | 14.85369 | 102.84959 | 39840 ft | 494 kts | 244° |
| 2026-05-06 10:53 | 14.83067 | 102.78273 | 39840 ft | 494 kts | 252° |
| 2026-05-06 10:54 | 14.81003 | 102.71543 | 39669 ft | 483 kts | 252° |
| 2026-05-06 10:54 | 14.79993 | 102.68268 | 39436 ft | 474 kts | 252° |
| 2026-05-06 10:54 | 14.78999 | 102.65041 | 39200 ft | 470 kts | 252° |
| 2026-05-06 10:54 | 14.78004 | 102.61809 | 38910 ft | 474 kts | 252° |
| 2026-05-06 10:55 | 14.77002 | 102.58555 | 38262 ft | 478 kts | 252° |
| 2026-05-06 10:55 | 14.75992 | 102.55272 | 37307 ft | 483 kts | 252° |
| 2026-05-06 10:55 | 14.74977 | 102.51975 | 36217 ft | 491 kts | 252° |
| 2026-05-06 10:55 | 14.73922 | 102.48553 | 35366 ft | 494 kts | 252° |
| 2026-05-06 10:56 | 14.72882 | 102.45178 | 34602 ft | 494 kts | 253° |
| 2026-05-06 10:56 | 14.71848 | 102.41825 | 33622 ft | 499 kts | 253° |
| 2026-05-06 10:56 | 14.70797 | 102.38420 | 32848 ft | 497 kts | 253° |
| 2026-05-06 10:56 | 14.69753 | 102.35039 | 32373 ft | 489 kts | 253° |
| 2026-05-06 10:57 | 14.68732 | 102.31736 | 32021 ft | 479 kts | 252° |
| 2026-05-06 10:57 | 14.67720 | 102.28464 | 31295 ft | 478 kts | 252° |
| 2026-05-06 10:57 | 14.66710 | 102.25195 | 30723 ft | 475 kts | 252° |
| 2026-05-06 10:57 | 14.65727 | 102.22019 | 30179 ft | 470 kts | 252° |
| 2026-05-06 10:58 | 14.64719 | 102.18763 | 29527 ft | 468 kts | 252° |
| 2026-05-06 10:58 | 14.63732 | 102.15579 | 28934 ft | 463 kts | 252° |
| 2026-05-06 10:58 | 14.62756 | 102.12429 | 28329 ft | 459 kts | 252° |
| 2026-05-06 10:58 | 14.61787 | 102.09306 | 27729 ft | 455 kts | 252° |
| 2026-05-06 10:59 | 14.60827 | 102.06211 | 27142 ft | 451 kts | 252° |
| 2026-05-06 10:59 | 14.59874 | 102.03141 | 26557 ft | 447 kts | 252° |
| 2026-05-06 10:59 | 14.58926 | 102.00091 | 25964 ft | 444 kts | 252° |
| 2026-05-06 10:59 | 14.57984 | 101.97061 | 25382 ft | 441 kts | 253° |
| 2026-05-06 11:00 | 14.57048 | 101.94051 | 24786 ft | 439 kts | 253° |
| 2026-05-06 11:00 | 14.56067 | 101.91101 | 24218 ft | 437 kts | 248° |
| 2026-05-06 11:00 | 14.54885 | 101.88194 | 23588 ft | 435 kts | 248° |
| 2026-05-06 11:00 | 14.53741 | 101.85349 | 22960 ft | 434 kts | 248° |
| 2026-05-06 11:01 | 14.52583 | 101.82450 | 22393 ft | 428 kts | 248° |
| 2026-05-06 11:01 | 14.51453 | 101.79622 | 21797 ft | 424 kts | 248° |
| 2026-05-06 11:01 | 14.50356 | 101.76876 | 21226 ft | 420 kts | 248° |
| 2026-05-06 11:01 | 14.49225 | 101.74052 | 20645 ft | 417 kts | 248° |
| 2026-05-06 11:02 | 14.48122 | 101.71299 | 20062 ft | 414 kts | 248° |
| 2026-05-06 11:02 | 14.47026 | 101.68565 | 19488 ft | 411 kts | 248° |
| 2026-05-06 11:02 | 14.45953 | 101.65890 | 18922 ft | 408 kts | 248° |
| 2026-05-06 11:02 | 14.44870 | 101.63190 | 18345 ft | 406 kts | 248° |
| 2026-05-06 11:03 | 14.43798 | 101.60519 | 17733 ft | 403 kts | 248° |
| 2026-05-06 11:03 | 14.42739 | 101.57883 | 17140 ft | 399 kts | 248° |
| 2026-05-06 11:03 | 14.41670 | 101.55223 | 16581 ft | 394 kts | 248° |
| 2026-05-06 11:03 | 14.40627 | 101.52626 | 16024 ft | 390 kts | 248° |
| 2026-05-06 11:04 | 14.39593 | 101.50054 | 15458 ft | 386 kts | 248° |
| 2026-05-06 11:04 | 14.38569 | 101.47506 | 14924 ft | 383 kts | 248° |
| 2026-05-06 11:04 | 14.37556 | 101.44987 | 14371 ft | 380 kts | 248° |
| 2026-05-06 11:04 | 14.36545 | 101.42476 | 13823 ft | 377 kts | 248° |
| 2026-05-06 11:05 | 14.35546 | 101.39994 | 13245 ft | 374 kts | 248° |
| 2026-05-06 11:05 | 14.34555 | 101.37533 | 12724 ft | 369 kts | 248° |
| 2026-05-06 11:05 | 14.33587 | 101.35131 | 12204 ft | 364 kts | 248° |
| 2026-05-06 11:05 | 14.32627 | 101.32748 | 11708 ft | 360 kts | 248° |
| 2026-05-06 11:06 | 14.31668 | 101.30369 | 11255 ft | 354 kts | 248° |
| 2026-05-06 11:06 | 14.30597 | 101.28096 | 10745 ft | 351 kts | 239° |
| 2026-05-06 11:06 | 14.29244 | 101.26025 | 10365 ft | 344 kts | 234° |
| 2026-05-06 11:06 | 14.27899 | 101.24042 | 10240 ft | 330 kts | 234° |
| 2026-05-06 11:07 | 14.26625 | 101.22128 | 10112 ft | 317 kts | 235° |
| 2026-05-06 11:07 | 14.25407 | 101.20292 | 9979 ft | 306 kts | 234° |
| 2026-05-06 11:07 | 14.24207 | 101.18485 | 9634 ft | 304 kts | 234° |
| 2026-05-06 11:07 | 14.23014 | 101.16692 | 9307 ft | 301 kts | 234° |
| 2026-05-06 11:08 | 14.21841 | 101.14931 | 9019 ft | 296 kts | 234° |
| 2026-05-06 11:08 | 14.20683 | 101.13195 | 8697 ft | 291 kts | 235° |
| 2026-05-06 11:08 | 14.19540 | 101.11480 | 8386 ft | 288 kts | 234° |
| 2026-05-06 11:08 | 14.18422 | 101.09806 | 8072 ft | 285 kts | 234° |
| 2026-05-06 11:09 | 14.17306 | 101.08131 | 7767 ft | 282 kts | 234° |
| 2026-05-06 11:09 | 14.16199 | 101.06473 | 7458 ft | 280 kts | 234° |
| 2026-05-06 11:09 | 14.15098 | 101.04825 | 7149 ft | 278 kts | 234° |
| 2026-05-06 11:09 | 14.14007 | 101.03191 | 6837 ft | 276 kts | 234° |
| 2026-05-06 11:10 | 14.12923 | 101.01567 | 6532 ft | 274 kts | 234° |
| 2026-05-06 11:10 | 14.11846 | 100.99954 | 6203 ft | 273 kts | 234° |
| 2026-05-06 11:10 | 14.10761 | 100.98331 | 5902 ft | 279 kts | 233° |
| 2026-05-06 11:10 | 14.09645 | 100.96662 | 5590 ft | 285 kts | 233° |
| 2026-05-06 11:11 | 14.08521 | 100.94982 | 5285 ft | 283 kts | 234° |
| 2026-05-06 11:11 | 14.07410 | 100.93317 | 5121 ft | 282 kts | 233° |
| 2026-05-06 11:11 | 14.06315 | 100.91681 | 4943 ft | 273 kts | 234° |
| 2026-05-06 11:11 | 14.05255 | 100.90094 | 4777 ft | 265 kts | 234° |
| 2026-05-06 11:12 | 14.04223 | 100.88549 | 4603 ft | 258 kts | 233° |
| 2026-05-06 11:12 | 14.03219 | 100.87047 | 4421 ft | 252 kts | 234° |
| 2026-05-06 11:12 | 14.02224 | 100.85578 | 4248 ft | 247 kts | 229° |
| 2026-05-06 11:12 | 14.00914 | 100.84496 | 4069 ft | 242 kts | 202° |
| 2026-05-06 11:13 | 13.99312 | 100.84028 | 3919 ft | 240 kts | 191° |
| 2026-05-06 11:13 | 13.97701 | 100.83626 | 3756 ft | 238 kts | 193° |
| 2026-05-06 11:13 | 13.96099 | 100.83203 | 3642 ft | 238 kts | 193° |
| 2026-05-06 11:13 | 13.94491 | 100.82774 | 3510 ft | 238 kts | 192° |
| 2026-05-06 11:14 | 13.92883 | 100.82346 | 3321 ft | 237 kts | 192° |
| 2026-05-06 11:14 | 13.91295 | 100.81929 | 3132 ft | 234 kts | 192° |
| 2026-05-06 11:14 | 13.89728 | 100.81529 | 2940 ft | 231 kts | 192° |
| 2026-05-06 11:14 | 13.88180 | 100.81126 | 2774 ft | 227 kts | 193° |
| 2026-05-06 11:15 | 13.86658 | 100.80723 | 2616 ft | 225 kts | 193° |
| 2026-05-06 11:15 | 13.85150 | 100.80325 | 2426 ft | 222 kts | 193° |
| 2026-05-06 11:15 | 13.83675 | 100.79934 | 2313 ft | 214 kts | 193° |
| 2026-05-06 11:15 | 13.82288 | 100.79568 | 2186 ft | 205 kts | 193° |
| 2026-05-06 11:16 | 13.80963 | 100.79217 | 2063 ft | 186 kts | 193° |
| 2026-05-06 11:16 | 13.79749 | 100.78896 | 1961 ft | 173 kts | 194° |
| 2026-05-06 11:16 | 13.78608 | 100.78596 | 1819 ft | 167 kts | 193° |
| 2026-05-06 11:16 | 13.77493 | 100.78301 | 1652 ft | 161 kts | 194° |
| 2026-05-06 11:17 | 13.76476 | 100.78031 | 1447 ft | 144 kts | 194° |
| 2026-05-06 11:17 | 13.75514 | 100.77778 | 1262 ft | 140 kts | 194° |
| 2026-05-06 11:17 | 13.74584 | 100.77530 | 1072 ft | 138 kts | 194° |
| 2026-05-06 11:17 | 13.73646 | 100.77283 | 913 ft | 139 kts | 194° |
| 2026-05-06 11:18 | 13.72711 | 100.77043 | 723 ft | 139 kts | 194° |
| 2026-05-06 11:18 | 13.71776 | 100.76796 | 582 ft | 137 kts | 194° |
| 2026-05-06 11:18 | 13.70840 | 100.76551 | 402 ft | 138 kts | 194° |
| 2026-05-06 11:18 | 13.69917 | 100.76304 | 212 ft | 137 kts | 195° |
| 2026-05-06 11:19 | 13.69001 | 100.76061 | 40 ft | 135 kts | 194° |
| 2026-05-06 11:19 | 13.68200 | 100.75851 | 19 ft | 97 kts | 195° |
| 2026-05-06 11:19 | 13.67790 | 100.75742 | 16 ft | 30 kts | 194° |
| 2026-05-06 11:19 | 13.67617 | 100.75680 | 16 ft | 24 kts | 209° |
| 2026-05-06 11:20 | 13.67498 | 100.75591 | 19 ft | 19 kts | 223° |
| 2026-05-06 11:20 | 13.67449 | 100.75515 | 21 ft | 8 kts | 279° |
| 2026-05-06 11:20 | 13.67485 | 100.75480 | 19 ft | 9 kts | 346° |
| 2026-05-06 11:20 | 13.67564 | 100.75490 | 21 ft | 15 kts | 14° |
| 2026-05-06 11:21 | 13.67680 | 100.75519 | 20 ft | 16 kts | 14° |
| 2026-05-06 11:21 | 13.67751 | 100.75517 | 21 ft | 10 kts | 314° |
| 2026-05-06 11:21 | 13.67787 | 100.75473 | 20 ft | 8 kts | 335° |
| 2026-05-06 11:21 | 13.67854 | 100.75465 | 21 ft | 13 kts | 12° |
| 2026-05-06 11:22 | 13.67962 | 100.75493 | 20 ft | 19 kts | 14° |
| 2026-05-06 11:22 | 13.68107 | 100.75532 | 21 ft | 23 kts | 14° |
| 2026-05-06 11:22 | 13.68208 | 100.75553 | 20 ft | 10 kts | 345° |
| 2026-05-06 11:22 | 13.68256 | 100.75491 | 20 ft | 13 kts | 284° |
| 2026-05-06 11:23 | 13.68281 | 100.75391 | 19 ft | 16 kts | 284° |
| 2026-05-06 11:23 | 13.68310 | 100.75275 | 21 ft | 18 kts | 285° |
| 2026-05-06 11:23 | 13.68343 | 100.75147 | 18 ft | 19 kts | 284° |
| 2026-05-06 11:23 | 13.68378 | 100.75009 | 20 ft | 20 kts | 284° |
| 2026-05-06 11:24 | 13.68400 | 100.74918 | 19 ft | 6 kts | 273° |
| 2026-05-06 11:24 | 13.68387 | 100.74896 | 22 ft | 4 kts | 211° |
| 2026-05-06 11:24 | 13.68349 | 100.74881 | 19 ft | 5 kts | 194° |
| 2026-05-06 11:24 | 13.68335 | 100.74878 | 22 ft | 2 kts | 193° |
| 2026-05-06 11:25 | 13.68326 | 100.74876 | 22 ft | 1 kts | 193° |
| 2026-05-06 11:25 | 13.68319 | 100.74874 | 21 ft | 1 kts | 193° |
| 2026-05-06 11:25 | 13.68318 | 100.74874 | 21 ft | 0 kts | 193° |
| 2026-05-06 11:50 | 13.68330 | 100.74877 | 22 ft | 3 kts | 197° |
| 2026-05-06 11:50 | 13.68349 | 100.74884 | 20 ft | 3 kts | 204° |
| 2026-05-06 11:50 | 13.68366 | 100.74893 | 23 ft | 3 kts | 214° |
| 2026-05-06 11:50 | 13.68381 | 100.74906 | 23 ft | 3 kts | 228° |
| 2026-05-06 11:51 | 13.68391 | 100.74920 | 23 ft | 3 kts | 247° |